This is the latest recevied weather packets stored in our database for station/object YREN. If no packets are shown the sender has not sent any weather packets the latest 10 day(s).
| Time | Temp. | Humidity | Pressure | Rain* | Wind** | Luminosity | Snow |
|---|---|---|---|---|---|---|---|
| 1788267904 | 14.44° C | 95% | 1016 hPa | 0 mm | - | - | - |
| 1788266104 | 14.44° C | 92% | 1016.3 hPa | 0 mm | - | - | - |
| 1788265204 | 15° C | 90% | 1016.2 hPa | 0.51 mm | - | - | - |
| 1788262503 | 15.56° C | 88% | 1015.9 hPa | 0.51 mm | - | - | - |
| 1788261603 | 15.56° C | 89% | 1017.1 hPa | 0 mm | - | - | - |
| 1788260703 | 15.56° C | 89% | 1017.1 hPa | 0 mm | - | - | - |
| 1788259804 | 15.56° C | 85% | 1016.5 hPa | 0 mm | - | - | - |
| 1788258904 | 15.56° C | 85% | 1016.5 hPa | 0 mm | - | - | - |
| 1788258004 | 16.67° C | 75% | 1016.9 hPa | 0 mm | - | - | - |
| 1788257103 | 16.67° C | 75% | 1016.9 hPa | 0 mm | - | - | - |
| 1788256204 | 19.44° C | 54% | 1017 hPa | 0 mm | - | - | - |
| 1788255304 | 19.44° C | 54% | 1017 hPa | 0 mm | - | - | - |
| 1788254404 | 20.56° C | 47% | 1016.2 hPa | 0 mm | - | - | - |
| 1788253504 | 20.56° C | 47% | 1016.2 hPa | 0 mm | - | - | - |
| 1788251703 | 21.11° C | 44% | 1015.8 hPa | 0 mm | - | - | - |
| 1788250803 | 21.67° C | 39% | 1015.3 hPa | 0 mm | - | - | - |
| 1788249903 | 23.33° C | 34% | 1015.3 hPa | 0 mm | - | - | - |
| 1788249003 | 23.33° C | 34% | 1015.3 hPa | 0 mm | - | - | - |
| 1788248104 | 23.33° C | 34% | 1015.3 hPa | 0 mm | - | - | - |
| 1788247204 | 23.33° C | 35% | 1015 hPa | 0 mm | - | - | - |
| 1788246304 | 23.33° C | 35% | 1015 hPa | 0 mm | - | - | - |
| 1788245404 | 23.89° C | 32% | 1014.7 hPa | 0 mm | - | - | - |
| 1788244503 | 23.89° C | 32% | 1014.7 hPa | 0 mm | - | - | - |
| 1788243604 | 23.89° C | 31% | 1015 hPa | 0 mm | - | - | - |
| 1788242704 | 23.89° C | 31% | 1015 hPa | 0 mm | - | - | - |
* Rain latest hour (hover to see other rain measurements)
** Current wind speed in m/s (hover to see current wind gust speed)